Time;durP1;ratioP1;P1;durP2;ratioP2;P2;SDS_P1;SDS_P2;PMS_P1;PMS_P2;Temp;Humidity;BMP_temperature;BMP_pressure;BME280_temperature;BME280_humidity;BME280_pressure;Samples;Min_cycle;Max_cycle;Signal;HPM_P1;HPM_P2
2023/04/20 00:00:16;;;;;;;3.97;1.27;;;9.30;46.80;;;;;;5057069;28;20032;-79
2023/04/20 00:02:42;;;;;;;5.07;1.37;;;9.30;46.70;;;;;;5073503;28;20085;-81
2023/04/20 00:05:09;;;;;;;4.57;1.00;;;9.30;46.80;;;;;;5073605;28;20078;-80
2023/04/20 00:07:35;;;;;;;3.73;1.00;;;9.20;47.00;;;;;;5074795;28;20035;-80
2023/04/20 00:10:02;;;;;;;3.93;1.47;;;9.20;47.20;;;;;;5073469;28;20024;-81
2023/04/20 00:12:28;;;;;;;3.77;1.23;;;9.10;47.30;;;;;;5074736;28;20480;-81
2023/04/20 00:14:54;;;;;;;3.37;1.30;;;9.10;47.40;;;;;;5074945;28;20028;-81
2023/04/20 00:17:20;;;;;;;5.63;1.70;;;9.10;48.10;;;;;;5072415;28;20036;-80
2023/04/20 00:19:46;;;;;;;3.83;1.17;;;9.00;47.70;;;;;;5073356;28;20028;-81
2023/04/20 00:22:12;;;;;;;4.37;1.20;;;9.00;47.70;;;;;;5074539;28;20028;-81
2023/04/20 00:24:38;;;;;;;4.97;1.73;;;8.90;47.70;;;;;;5074558;28;20103;-80
2023/04/20 00:27:03;;;;;;;4.80;1.20;;;8.90;47.80;;;;;;5056402;28;20531;-80
2023/04/20 00:29:29;;;;;;;2.33;0.97;;;8.90;47.80;;;;;;5074469;28;20029;-80
2023/04/20 00:31:55;;;;;;;5.03;1.37;;;8.90;47.80;;;;;;5074343;28;20082;-80
2023/04/20 00:34:20;;;;;;;2.90;1.00;;;8.80;47.80;;;;;;5072962;28;20191;-80
2023/04/20 00:36:46;;;;;;;4.93;1.30;;;8.80;47.90;;;;;;5074191;28;20412;-80
2023/04/20 00:39:11;;;;;;;3.77;0.87;;;8.70;48.10;;;;;;5074295;28;20465;-80
2023/04/20 00:41:37;;;;;;;9.73;1.83;;;8.70;48.10;;;;;;5074106;28;20108;-80
2023/04/20 00:44:03;;;;;;;2.93;1.13;;;8.70;48.10;;;;;;5074064;28;20036;-80
2023/04/20 00:46:29;;;;;;;2.90;1.07;;;8.60;48.40;;;;;;5073982;28;20029;-81
2023/04/20 00:48:55;;;;;;;4.00;1.13;;;8.60;48.40;;;;;;5072712;28;20032;-80
2023/04/20 00:51:21;;;;;;;5.57;1.20;;;8.50;48.30;;;;;;5056066;28;20024;-80
2023/04/20 00:53:47;;;;;;;5.23;1.37;;;8.50;48.60;;;;;;5074503;28;20078;-80
2023/04/20 00:56:13;;;;;;;3.43;1.30;;;8.50;48.60;;;;;;5072590;28;20311;-81
2023/04/20 00:58:41;;;;;;;5.63;1.10;;;8.50;48.70;;;;;;5073818;28;20051;-80
2023/04/20 01:01:07;;;;;;;3.20;1.07;;;8.50;49.10;;;;;;5073673;28;20031;-80
2023/04/20 01:03:34;;;;;;;4.23;1.40;;;8.50;49.10;;;;;;5070286;28;20035;-80
2023/04/20 01:06:01;;;;;;;3.77;1.30;;;8.40;49.30;;;;;;5073738;28;20036;-74
2023/04/20 01:08:27;;;;;;;4.60;1.10;;;8.30;49.30;;;;;;5072176;28;20036;-74
2023/04/20 01:10:54;;;;;;;3.13;1.30;;;8.40;49.70;;;;;;5072477;28;20037;-74
2023/04/20 01:13:19;;;;;;;5.40;1.13;;;8.30;49.70;;;;;;5074027;28;20035;-74
2023/04/20 01:15:45;;;;;;;4.03;1.20;;;8.20;50.00;;;;;;5072673;28;20029;-73
2023/04/20 01:18:11;;;;;;;5.37;1.40;;;8.20;49.90;;;;;;5074062;28;20491;-74
2023/04/20 01:20:37;;;;;;;4.47;1.57;;;8.30;50.10;;;;;;5055885;28;20025;-74
2023/04/20 01:23:02;;;;;;;3.23;1.27;;;8.20;50.40;;;;;;5072489;28;20032;-74
2023/04/20 01:25:28;;;;;;;4.13;1.40;;;8.20;50.40;;;;;;5073598;28;20032;-74
2023/04/20 01:27:54;;;;;;;4.13;1.40;;;8.10;50.70;;;;;;5073292;28;20369;-73
2023/04/20 01:30:20;;;;;;;5.53;1.60;;;8.10;51.10;;;;;;5069766;28;20024;-73
2023/04/20 01:32:46;;;;;;;5.47;1.70;;;8.10;51.40;;;;;;5066668;28;20594;-73
2023/04/20 01:35:11;;;;;;;10.63;2.03;;;8.10;51.70;;;;;;5065763;28;20020;-74
2023/04/20 01:37:38;;;;;;;4.43;1.60;;;8.30;52.00;;;;;;5052416;28;20025;-72
2023/04/20 01:40:05;;;;;;;6.23;2.00;;;8.20;52.80;;;;;;5035092;28;20040;-73
2023/04/20 01:42:31;;;;;;;6.47;1.50;;;8.20;52.90;;;;;;5057173;28;20093;-73
2023/04/20 01:44:57;;;;;;;6.73;2.23;;;8.30;54.00;;;;;;5063924;28;20579;-73
2023/04/20 01:47:22;;;;;;;3.80;1.60;;;8.40;54.30;;;;;;5072773;28;20025;-73
2023/04/20 01:49:48;;;;;;;5.90;1.63;;;8.40;54.30;;;;;;5071742;28;20488;-73
2023/04/20 01:52:13;;;;;;;4.90;1.77;;;8.50;55.90;;;;;;5071770;28;20024;-73
2023/04/20 01:54:39;;;;;;;4.93;2.10;;;8.50;56.20;;;;;;5072926;28;20036;-74
2023/04/20 01:57:05;;;;;;;4.33;1.73;;;8.50;56.50;;;;;;5071725;28;20041;-74
2023/04/20 01:59:30;;;;;;;5.47;1.73;;;8.50;56.70;;;;;;5051171;28;20032;-73
2023/04/20 02:01:56;;;;;;;5.17;1.97;;;8.50;57.30;;;;;;5052006;28;20520;-73
2023/04/20 02:04:22;;;;;;;5.30;1.67;;;8.50;57.60;;;;;;5051556;28;20029;-73
2023/04/20 02:06:48;;;;;;;6.23;1.90;;;8.50;57.70;;;;;;5051965;28;20078;-73
2023/04/20 02:09:14;;;;;;;5.20;2.20;;;8.50;57.80;;;;;;5061782;28;20388;-73
2023/04/20 02:11:39;;;;;;;5.30;1.60;;;8.50;58.70;;;;;;5054719;28;20049;-73
2023/04/20 02:14:05;;;;;;;6.27;2.03;;;8.50;58.60;;;;;;5072946;28;20107;-73
2023/04/20 02:16:31;;;;;;;7.33;2.63;;;8.50;59.20;;;;;;5067556;28;20035;-73
2023/04/20 02:18:56;;;;;;;6.57;2.30;;;8.40;59.40;;;;;;5070300;28;20025;-73
2023/04/20 02:21:22;;;;;;;8.40;2.10;;;8.50;59.30;;;;;;5054923;28;20031;-73
2023/04/20 02:23:48;;;;;;;6.73;2.33;;;8.40;59.30;;;;;;5071401;28;20033;-74
2023/04/20 02:26:14;;;;;;;6.43;2.07;;;8.40;59.40;;;;;;5072901;28;20031;-73
2023/04/20 02:28:39;;;;;;;5.10;2.10;;;8.40;59.10;;;;;;5072032;28;20039;-73
2023/04/20 02:31:05;;;;;;;6.60;2.60;;;8.40;59.20;;;;;;5071708;28;20052;-74
2023/04/20 02:33:31;;;;;;;3.70;2.00;;;8.40;59.50;;;;;;5071558;28;20495;-73
2023/04/20 02:35:56;;;;;;;7.80;2.50;;;8.30;59.60;;;;;;5072902;28;20492;-74
2023/04/20 02:38:22;;;;;;;5.13;2.33;;;8.40;59.70;;;;;;5071836;28;20028;-73
2023/04/20 02:40:48;;;;;;;5.37;1.70;;;8.40;60.00;;;;;;5073902;28;20037;-74
2023/04/20 02:43:13;;;;;;;9.00;2.30;;;8.40;59.90;;;;;;5075408;28;20430;-74
2023/04/20 02:45:39;;;;;;;5.63;2.20;;;8.50;60.00;;;;;;5075567;28;20032;-74
2023/04/20 02:48:05;;;;;;;5.27;1.83;;;8.50;60.30;;;;;;5076737;28;20046;-73
2023/04/20 02:50:33;;;;;;;7.23;2.13;;;8.50;60.50;;;;;;5076956;28;20051;-74
2023/04/20 02:52:59;;;;;;;5.20;2.10;;;8.60;60.10;;;;;;5075388;28;20055;-74
2023/04/20 02:55:26;;;;;;;5.47;1.87;;;8.60;60.40;;;;;;5058566;28;20106;-73
2023/04/20 02:57:51;;;;;;;5.73;2.90;;;8.70;60.60;;;;;;5075404;28;20162;-74
2023/04/20 03:00:17;;;;;;;4.53;2.00;;;8.70;60.50;;;;;;5075283;28;20562;-74
2023/04/20 03:02:43;;;;;;;6.87;1.90;;;8.70;60.90;;;;;;5058697;28;20029;-73
2023/04/20 03:05:09;;;;;;;5.60;2.20;;;8.70;60.70;;;;;;5075135;28;20035;-74
2023/04/20 03:07:34;;;;;;;5.30;2.27;;;8.80;60.90;;;;;;5076306;28;20039;-74
2023/04/20 03:10:00;;;;;;;6.40;2.23;;;8.80;61.50;;;;;;5076410;28;20025;-74
2023/04/20 03:12:26;;;;;;;5.37;1.83;;;8.80;61.20;;;;;;5066060;28;20050;-74
2023/04/20 03:14:51;;;;;;;6.30;2.00;;;8.80;61.20;;;;;;5070414;28;20115;-74
2023/04/20 03:17:17;;;;;;;4.97;1.87;;;8.90;60.90;;;;;;5075504;28;20055;-73
2023/04/20 03:19:43;;;;;;;6.57;2.03;;;8.90;61.00;;;;;;5076070;28;20033;-73
2023/04/20 03:22:08;;;;;;;6.17;2.23;;;8.90;61.20;;;;;;5074572;28;20055;-73
2023/04/20 03:24:34;;;;;;;6.20;2.90;;;9.00;61.50;;;;;;5058196;28;20032;-74
2023/04/20 03:27:00;;;;;;;6.40;1.90;;;9.00;61.50;;;;;;5074430;28;20032;-73
2023/04/20 03:29:25;;;;;;;7.13;2.20;;;9.00;61.10;;;;;;5057816;28;20031;-73
2023/04/20 03:31:51;;;;;;;5.13;2.17;;;9.00;61.90;;;;;;5057514;28;20192;-73
2023/04/20 03:34:16;;;;;;;5.80;2.03;;;9.10;62.10;;;;;;5074793;28;20208;-74
2023/04/20 03:36:42;;;;;;;5.30;2.20;;;9.00;62.10;;;;;;5075807;28;20078;-73
2023/04/20 03:39:08;;;;;;;6.60;2.17;;;9.10;62.50;;;;;;5075625;28;20097;-81
2023/04/20 03:41:34;;;;;;;5.67;2.20;;;9.10;62.10;;;;;;5057626;28;20021;-81
2023/04/20 03:44:00;;;;;;;3.73;2.10;;;9.10;61.80;;;;;;5074205;28;20389;-81
2023/04/20 03:46:25;;;;;;;6.30;2.30;;;9.10;61.90;;;;;;5075436;28;20103;-79
2023/04/20 03:48:51;;;;;;;6.90;1.93;;;9.10;61.90;;;;;;5056973;28;20035;-81
2023/04/20 03:51:17;;;;;;;8.10;2.43;;;9.10;62.60;;;;;;5056523;28;20460;-74
2023/04/20 03:53:45;;;;;;;4.47;1.93;;;9.10;62.20;;;;;;5069740;28;20687;-74
2023/04/20 03:56:11;;;;;;;6.37;2.10;;;9.10;62.10;;;;;;5069775;28;20021;-74
2023/04/20 03:58:36;;;;;;;4.30;1.83;;;9.10;62.00;;;;;;5053491;28;20033;-74
2023/04/20 04:01:05;;;;;;;7.10;2.37;;;9.20;62.40;;;;;;5070004;28;20109;-74
2023/04/20 04:03:31;;;;;;;6.93;2.10;;;9.10;62.30;;;;;;5070071;28;20083;-74
2023/04/20 04:05:57;;;;;;;5.53;1.83;;;9.20;62.50;;;;;;5053683;28;20457;-73
2023/04/20 04:08:23;;;;;;;4.67;1.97;;;9.20;62.30;;;;;;5070395;28;20029;-74
2023/04/20 04:10:49;;;;;;;5.33;2.13;;;9.20;62.20;;;;;;5054698;28;20452;-75
2023/04/20 04:13:14;;;;;;;6.67;2.27;;;9.20;62.60;;;;;;5053996;28;20043;-73
2023/04/20 04:15:40;;;;;;;5.50;1.57;;;9.10;62.60;;;;;;5054669;28;20136;-74
2023/04/20 04:18:06;;;;;;;6.57;2.00;;;9.10;62.30;;;;;;5070347;28;20029;-74
2023/04/20 04:20:31;;;;;;;4.53;1.87;;;9.10;62.30;;;;;;5070389;28;20393;-73
2023/04/20 04:22:57;;;;;;;7.97;2.30;;;9.10;62.30;;;;;;5054706;28;20029;-73
2023/04/20 04:25:22;;;;;;;5.97;1.80;;;9.10;62.60;;;;;;5069995;28;20141;-74
2023/04/20 04:27:49;;;;;;;4.13;1.70;;;9.10;62.40;;;;;;5053498;28;20040;-74
2023/04/20 04:30:16;;;;;;;4.90;2.07;;;9.10;62.60;;;;;;5054482;28;20040;-80
2023/04/20 04:32:43;;;;;;;5.17;2.03;;;9.10;62.50;;;;;;5053290;28;20078;-80
2023/04/20 04:35:09;;;;;;;3.80;1.70;;;9.20;62.80;;;;;;5054623;28;20021;-80
2023/04/20 04:37:35;;;;;;;6.53;2.10;;;9.20;62.50;;;;;;5053219;28;20388;-80
2023/04/20 04:40:01;;;;;;;7.00;2.50;;;9.20;62.60;;;;;;5054402;28;20049;-81
2023/04/20 04:42:27;;;;;;;5.13;1.93;;;9.20;62.60;;;;;;5054422;28;20500;-80
2023/04/20 04:44:55;;;;;;;5.17;2.07;;;9.20;62.80;;;;;;5069721;28;20469;-82
2023/04/20 04:47:22;;;;;;;6.23;2.00;;;9.20;63.10;;;;;;5054216;28;20021;-82
2023/04/20 04:49:48;;;;;;;4.40;1.80;;;9.20;63.40;;;;;;5069503;28;20025;-82
2023/04/20 04:52:14;;;;;;;5.57;2.10;;;9.20;63.10;;;;;;5054077;28;20021;-80
2023/04/20 04:54:40;;;;;;;5.20;2.03;;;9.20;63.40;;;;;;5069612;28;20074;-82
2023/04/20 04:57:06;;;;;;;6.17;2.50;;;9.20;63.30;;;;;;5054170;28;20029;-81
2023/04/20 04:59:31;;;;;;;5.67;2.03;;;9.20;63.40;;;;;;5069445;28;20048;-81
2023/04/20 05:01:57;;;;;;;4.03;1.67;;;9.20;63.40;;;;;;5053878;28;20029;-81
2023/04/20 05:04:22;;;;;;;4.50;1.93;;;9.20;63.40;;;;;;5069004;28;20420;-81
2023/04/20 05:06:48;;;;;;;5.73;2.10;;;9.30;63.20;;;;;;5054072;28;20044;-81
2023/04/20 05:09:14;;;;;;;5.33;2.13;;;9.30;63.20;;;;;;5053795;28;20025;-81
2023/04/20 05:11:40;;;;;;;5.90;1.83;;;9.30;63.10;;;;;;5053697;28;20045;-81
2023/04/20 05:14:05;;;;;;;4.67;2.20;;;9.30;63.30;;;;;;5075807;28;20044;-82
2023/04/20 05:16:31;;;;;;;5.40;2.17;;;9.30;63.30;;;;;;5063806;28;20029;-80
2023/04/20 05:18:57;;;;;;;8.13;2.07;;;9.30;63.50;;;;;;5051802;28;20361;-80
2023/04/20 05:21:22;;;;;;;4.57;1.87;;;9.40;63.30;;;;;;5053421;28;20029;-80
2023/04/20 05:23:48;;;;;;;5.43;2.03;;;9.30;63.20;;;;;;5053524;28;20033;-82
2023/04/20 05:26:13;;;;;;;8.73;2.13;;;9.40;63.50;;;;;;5053341;28;20363;-81
2023/04/20 05:28:39;;;;;;;5.67;2.00;;;9.40;63.20;;;;;;5066389;28;20033;-81
2023/04/20 05:31:06;;;;;;;5.63;2.30;;;9.50;63.20;;;;;;5071937;28;20107;-81
2023/04/20 05:33:32;;;;;;;7.07;2.30;;;9.60;63.40;;;;;;5063090;28;20051;-81
2023/04/20 05:35:58;;;;;;;6.73;2.40;;;9.50;63.20;;;;;;5071206;28;20473;-82
2023/04/20 05:38:24;;;;;;;5.13;2.07;;;9.50;63.50;;;;;;5059577;28;20393;-81
2023/04/20 05:40:50;;;;;;;5.57;2.40;;;9.60;63.60;;;;;;5062700;28;20063;-81
2023/04/20 05:43:17;;;;;;;5.30;1.97;;;9.60;63.60;;;;;;5065513;28;20210;-80
2023/04/20 05:45:47;;;;;;;4.37;1.93;;;9.60;63.50;;;;;;5070344;28;20047;-81
2023/04/20 05:48:12;;;;;;;6.33;2.37;;;9.60;63.30;;;;;;5069631;28;20028;-81
2023/04/20 05:50:38;;;;;;;4.20;1.80;;;9.70;63.40;;;;;;5072922;28;20043;-81
2023/04/20 05:53:04;;;;;;;5.57;2.10;;;9.70;63.20;;;;;;5073048;28;20031;-80
2023/04/20 05:55:30;;;;;;;6.93;1.93;;;9.70;63.30;;;;;;5072990;28;20020;-83
2023/04/20 05:57:56;;;;;;;5.63;2.17;;;9.70;63.30;;;;;;5072836;28;20032;-79
2023/04/20 06:00:23;;;;;;;6.33;2.40;;;9.70;63.60;;;;;;5072954;28;20017;-80
2023/04/20 06:02:48;;;;;;;5.67;2.10;;;9.80;63.50;;;;;;5071830;28;20029;-82
2023/04/20 06:05:14;;;;;;;5.23;2.27;;;9.90;63.50;;;;;;5072702;28;20412;-80
2023/04/20 06:07:40;;;;;;;6.67;2.13;;;9.90;63.60;;;;;;5072891;28;20032;-81
2023/04/20 06:10:07;;;;;;;7.70;2.20;;;9.90;63.60;;;;;;5070147;28;20831;-82
2023/04/20 06:12:33;;;;;;;5.83;2.80;;;10.00;63.80;;;;;;5068403;28;20524;-83
2023/04/20 06:14:59;;;;;;;5.57;2.40;;;10.00;63.80;;;;;;5054247;28;20029;-84
2023/04/20 06:17:25;;;;;;;8.13;3.03;;;10.10;63.90;;;;;;5056942;28;20519;-83
2023/04/20 06:19:51;;;;;;;5.93;2.23;;;10.10;63.90;;;;;;5056835;28;20032;-84
2023/04/20 06:22:17;;;;;;;6.07;2.50;;;10.10;63.60;;;;;;5055949;28;20112;-84
2023/04/20 06:24:43;;;;;;;6.63;2.50;;;10.20;63.70;;;;;;5038468;28;20075;-85
2023/04/20 06:27:09;;;;;;;7.03;2.47;;;10.20;63.90;;;;;;5056561;28;20484;-83
2023/04/20 06:29:34;;;;;;;8.23;2.70;;;10.20;63.70;;;;;;5039418;28;20477;-84
2023/04/20 06:32:04;;;;;;;5.80;2.43;;;10.10;63.70;;;;;;5060487;28;20086;-84
2023/04/20 06:34:29;;;;;;;4.93;2.30;;;10.10;64.00;;;;;;5057642;28;20127;-84
2023/04/20 06:36:55;;;;;;;6.53;2.73;;;10.10;64.20;;;;;;5055433;28;20107;-83
2023/04/20 06:39:21;;;;;;;9.80;2.37;;;10.10;63.90;;;;;;5056378;28;20111;-84
2023/04/20 06:41:46;;;;;;;6.87;2.40;;;10.20;63.90;;;;;;5039038;28;20021;-79
2023/04/20 06:44:12;;;;;;;6.27;2.80;;;10.20;64.00;;;;;;5056384;28;20025;-83
2023/04/20 06:46:37;;;;;;;7.40;3.10;;;10.30;64.00;;;;;;5055270;28;20040;-83
2023/04/20 06:49:03;;;;;;;7.83;3.23;;;10.30;63.70;;;;;;5055347;28;20029;-84
2023/04/20 06:51:31;;;;;;;6.30;2.70;;;10.40;64.00;;;;;;5044951;28;20540;-81
2023/04/20 06:53:56;;;;;;;10.10;2.43;;;10.40;63.90;;;;;;5071459;28;20056;-83
2023/04/20 06:56:22;;;;;;;5.83;2.50;;;10.50;63.80;;;;;;5061465;28;20052;-84
2023/04/20 06:58:48;;;;;;;5.57;2.73;;;10.50;63.80;;;;;;5057962;28;20056;-84
2023/04/20 07:01:13;;;;;;;9.83;2.70;;;10.60;63.70;;;;;;5075860;28;20388;-85
2023/04/20 07:03:39;;;;;;;8.67;3.20;;;10.50;63.50;;;;;;5066785;28;20045;-86
2023/04/20 07:06:06;;;;;;;5.57;2.53;;;10.60;63.80;;;;;;5076143;28;20036;-85
2023/04/20 07:08:32;;;;;;;6.20;2.60;;;10.60;63.90;;;;;;5075744;28;20024;-84
2023/04/20 07:10:58;;;;;;;7.17;2.83;;;10.50;63.90;;;;;;5076058;28;20055;-85
2023/04/20 07:13:24;;;;;;;7.90;2.97;;;10.50;63.80;;;;;;5075876;28;20055;-85
2023/04/20 07:15:50;;;;;;;7.43;3.00;;;10.60;63.90;;;;;;5075923;28;20032;-85
2023/04/20 07:18:15;;;;;;;6.57;2.50;;;10.70;63.90;;;;;;5074829;28;20032;-82
2023/04/20 07:20:41;;;;;;;6.17;2.70;;;10.80;64.00;;;;;;5075934;28;20033;-82
2023/04/20 07:23:07;;;;;;;5.03;2.23;;;10.90;63.90;;;;;;5058069;28;20024;-82
2023/04/20 07:25:32;;;;;;;5.90;2.70;;;11.00;63.80;;;;;;5075658;28;20503;-84
2023/04/20 07:28:04;;;;;;;5.90;2.30;;;11.00;63.70;;;;;;5075832;28;20040;-74
2023/04/20 07:30:30;;;;;;;6.27;2.87;;;11.00;63.60;;;;;;5075785;28;20449;-76
2023/04/20 07:32:56;;;;;;;8.20;3.00;;;11.10;63.60;;;;;;5074307;28;20039;-76
2023/04/20 07:35:22;;;;;;;10.17;2.87;;;11.10;63.50;;;;;;5075947;28;20028;-75
2023/04/20 07:37:47;;;;;;;8.30;3.43;;;11.10;63.50;;;;;;5075821;28;20546;-76
2023/04/20 07:40:15;;;;;;;6.37;2.73;;;11.10;63.50;;;;;;5074339;28;20033;-76
2023/04/20 07:42:41;;;;;;;6.07;2.73;;;11.10;63.70;;;;;;5075672;28;20453;-76
2023/04/20 07:45:08;;;;;;;5.00;2.93;;;11.10;63.70;;;;;;5057936;28;20052;-76
2023/04/20 07:47:34;;;;;;;7.73;3.80;;;11.10;63.90;;;;;;5074335;28;20086;-76
2023/04/20 07:50:00;;;;;;;7.40;3.33;;;11.10;63.90;;;;;;5075545;28;20365;-75
2023/04/20 07:52:26;;;;;;;6.27;3.33;;;11.10;63.90;;;;;;5057378;28;20029;-76
2023/04/20 07:54:58;;;;;;;5.70;3.27;;;11.10;64.00;;;;;;5074428;28;20039;-76
2023/04/20 07:57:25;;;;;;;7.37;3.20;;;11.10;63.80;;;;;;5075176;28;20033;-75
2023/04/20 07:59:51;;;;;;;8.00;3.70;;;11.20;63.80;;;;;;5075228;28;20480;-76
2023/04/20 08:02:17;;;;;;;7.20;3.23;;;11.20;63.70;;;;;;5073868;28;20123;-76
2023/04/20 08:04:45;;;;;;;5.93;2.92;;;11.30;63.60;;;;;;5074695;28;20106;-76
2023/04/20 08:07:11;;;;;;;6.80;3.57;;;11.40;63.70;;;;;;5073575;28;20033;-76
2023/04/20 08:09:37;;;;;;;6.77;3.27;;;11.40;63.70;;;;;;5074888;28;20376;-76
2023/04/20 08:12:03;;;;;;;9.30;3.97;;;11.50;63.50;;;;;;5074895;28;20098;-76
2023/04/20 08:14:28;;;;;;;9.57;3.97;;;11.50;63.60;;;;;;5074036;28;20032;-76
2023/04/20 08:16:54;;;;;;;12.60;3.30;;;11.50;63.50;;;;;;5074706;28;20358;-76
2023/04/20 08:19:21;;;;;;;5.13;3.00;;;11.50;63.60;;;;;;5074588;28;20047;-76
2023/04/20 08:21:46;;;;;;;7.07;3.13;;;11.60;63.60;;;;;;5073665;28;20032;-76
2023/04/20 08:24:12;;;;;;;9.13;3.47;;;11.60;63.60;;;;;;5074621;28;20034;-75
2023/04/20 08:26:38;;;;;;;8.30;3.50;;;11.60;63.50;;;;;;5074698;28;20020;-76
2023/04/20 08:29:04;;;;;;;7.40;3.27;;;11.60;63.60;;;;;;5074911;28;20132;-76
2023/04/20 08:31:31;;;;;;;6.43;3.20;;;11.70;63.70;;;;;;5073476;28;20480;-75
2023/04/20 08:33:56;;;;;;;5.97;3.03;;;11.70;63.50;;;;;;5074473;28;20063;-75
2023/04/20 08:36:22;;;;;;;6.67;2.93;;;11.80;63.40;;;;;;5074460;28;20056;-75
2023/04/20 08:39:04;;;;;;;7.45;3.38;;;11.80;63.40;;;;;;5073487;28;20039;-75
2023/04/20 08:41:30;;;;;;;7.47;3.63;;;11.90;63.40;;;;;;5074346;28;20043;-75
2023/04/20 08:43:55;;;;;;;7.85;3.17;;;11.90;63.20;;;;;;5074385;28;20036;-84
2023/04/20 08:46:22;;;;;;;8.70;2.97;;;11.90;63.00;;;;;;5073357;28;20037;-81
2023/04/20 08:48:48;;;;;;;5.85;3.45;;;11.90;63.00;;;;;;5073412;28;20032;-83
2023/04/20 08:51:18;;;;;;;7.23;3.03;;;11.90;63.00;;;;;;5074117;28;20481;-84
2023/04/20 08:53:44;;;;;;;8.40;3.63;;;11.80;63.00;;;;;;5074142;28;20024;-84
2023/04/20 08:56:10;;;;;;;8.47;3.37;;;11.80;63.20;;;;;;5072808;28;20075;-83
2023/04/20 08:58:40;;;;;;;6.93;3.17;;;11.90;63.30;;;;;;5074227;28;20044;-84
2023/04/20 09:01:10;;;;;;;7.03;2.90;;;11.90;63.30;;;;;;5072863;28;20028;-84
2023/04/20 09:03:37;;;;;;;7.43;3.17;;;12.00;63.20;;;;;;5056083;28;20421;-84
2023/04/20 09:06:05;;;;;;;4.67;2.67;;;12.00;63.00;;;;;;5073924;28;20059;-85
2023/04/20 09:08:37;;;;;;;5.03;2.70;;;12.00;63.00;;;;;;5072430;28;20400;-84
2023/04/20 09:11:03;;;;;;;8.15;3.40;;;12.00;63.00;;;;;;5073692;28;20078;-83
2023/04/20 09:13:28;;;;;;;7.47;4.00;;;12.00;63.10;;;;;;5073723;28;20040;-84
2023/04/20 09:15:54;;;;;;;9.20;3.23;;;12.10;62.80;;;;;;5072597;28;20025;-86
2023/04/20 09:18:20;;;;;;;6.72;2.70;;;12.00;62.70;;;;;;5073642;28;20487;-86
2023/04/20 09:20:46;;;;;;;6.70;3.37;;;12.10;62.70;;;;;;5073965;28;20089;-83
2023/04/20 09:23:22;;;;;;;5.87;2.63;;;12.10;62.70;;;;;;5055708;28;20396;-82
2023/04/20 09:25:51;;;;;;;6.67;3.10;;;12.20;62.80;;;;;;5072172;28;20024;-83
2023/04/20 09:28:18;;;;;;;6.78;2.80;;;12.10;62.60;;;;;;5054142;28;20148;-83
2023/04/20 09:30:50;;;;;;;4.93;2.90;;;12.10;62.60;;;;;;5059471;28;20024;-87
2023/04/20 09:33:15;;;;;;;8.40;3.37;;;12.10;62.90;;;;;;5063086;28;20496;-83
2023/04/20 09:35:42;;;;;;;6.93;3.80;;;12.00;63.20;;;;;;5058191;28;20025;-85
2023/04/20 09:38:10;;;;;;;8.30;3.73;;;11.90;63.40;;;;;;5060170;28;20040;-84
2023/04/20 09:40:36;;;;;;;8.38;2.80;;;11.80;63.20;;;;;;5071988;28;20040;-84
2023/04/20 09:43:07;;;;;;;6.37;3.17;;;11.80;63.30;;;;;;5073070;28;20594;-86
2023/04/20 09:45:34;;;;;;;8.63;3.23;;;11.80;63.40;;;;;;5072040;28;20040;-84
2023/04/20 09:48:03;;;;;;;8.90;3.20;;;11.80;63.50;;;;;;5073290;28;20039;-82
2023/04/20 09:50:30;;;;;;;6.47;3.57;;;11.80;63.80;;;;;;5071496;28;20485;-83
2023/04/20 09:52:56;;;;;;;5.82;3.67;;;11.70;63.80;;;;;;5068934;28;20036;-83
2023/04/20 09:55:25;;;;;;;6.43;2.60;;;11.70;63.90;;;;;;5051853;28;20057;-83
2023/04/20 09:57:52;;;;;;;7.37;3.87;;;11.60;63.80;;;;;;5051399;28;20033;-82
2023/04/20 10:00:18;;;;;;;6.17;3.00;;;11.60;63.90;;;;;;5053077;28;20033;-86
2023/04/20 10:02:46;;;;;;;11.60;2.70;;;11.50;63.80;;;;;;5051895;28;20125;-85
2023/04/20 10:05:13;;;;;;;4.77;2.87;;;11.60;64.00;;;;;;5051892;28;20479;-86
2023/04/20 10:07:39;;;;;;;5.53;2.70;;;11.70;63.90;;;;;;5052955;28;20029;-86
2023/04/20 10:10:09;;;;;;;8.13;2.83;;;11.90;63.80;;;;;;5051871;28;20040;-86
2023/04/20 10:12:48;;;;;;;7.95;3.22;;;12.10;63.70;;;;;;5052667;28;20040;-87
2023/04/20 10:15:14;;;;;;;4.63;2.53;;;12.30;63.40;;;;;;5052390;28;20483;-85
2023/04/20 10:17:40;;;;;;;6.38;2.58;;;12.50;63.30;;;;;;5034662;28;20128;-83
2023/04/20 10:20:21;;;;;;;4.97;2.17;;;12.60;62.70;;;;;;5051614;28;20405;-85
2023/04/20 10:22:47;;;;;;;4.55;2.05;;;12.70;62.30;;;;;;5053072;28;20021;-82
2023/04/20 10:25:16;;;;;;;5.07;2.22;;;12.80;62.00;;;;;;5053020;28;20056;-81
2023/04/20 10:27:56;;;;;;;5.45;2.35;;;12.90;61.80;;;;;;5052767;28;20498;-86
2023/04/20 10:30:23;;;;;;;7.20;2.25;;;13.10;61.60;;;;;;5051608;28;20091;-83
2023/04/20 10:32:49;;;;;;;4.75;1.70;;;13.30;61.20;;;;;;5051592;28;20106;-86
2023/04/20 10:35:15;;;;;;;4.00;1.88;;;13.60;61.10;;;;;;5053342;28;20484;-83
2023/04/20 10:37:51;;;;;;;5.55;2.17;;;13.90;60.80;;;;;;5034975;28;20041;-87
2023/04/20 10:40:26;;;;;;;6.25;2.47;;;14.40;60.60;;;;;;5052716;28;20029;-86
2023/04/20 10:42:52;;;;;;;4.55;2.00;;;15.10;59.60;;;;;;5051449;28;20033;-87
2023/04/20 10:45:17;;;;;;;4.55;1.83;;;15.60;59.30;;;;;;5052809;28;20048;-83
2023/04/20 10:47:44;;;;;;;4.78;1.50;;;16.20;58.70;;;;;;5052520;28;20063;-87
2023/04/20 10:50:12;;;;;;;3.08;1.35;;;16.70;57.30;;;;;;5052352;28;20036;-85
2023/04/20 10:52:40;;;;;;;6.25;1.67;;;16.80;56.40;;;;;;5052683;28;20075;-81
2023/04/20 10:55:17;;;;;;;3.50;1.60;;;16.90;55.70;;;;;;5052651;28;20029;-84
2023/04/20 10:57:45;;;;;;;3.88;1.70;;;16.80;54.20;;;;;;5053094;28;20078;-85
2023/04/20 11:00:16;;;;;;;4.38;1.70;;;16.70;52.40;;;;;;5052720;28;20025;-87
2023/04/20 11:02:50;;;;;;;3.80;1.63;;;16.70;53.10;;;;;;5056412;28;20094;-88
2023/04/20 11:05:17;;;;;;;3.92;1.55;;;16.90;53.40;;;;;;5054943;28;20056;-83
2023/04/20 11:07:56;;;;;;;3.78;1.30;;;17.50;53.60;;;;;;5056605;28;20094;-86
2023/04/20 11:10:43;;;;;;;3.70;1.35;;;18.30;53.10;;;;;;5066715;28;20020;-83
2023/04/20 11:13:24;;;;;;;6.63;1.70;;;18.70;53.20;;;;;;5075639;28;20128;-87
2023/04/20 11:15:50;;;;;;;3.60;1.58;;;18.70;51.00;;;;;;5074369;28;20107;-86
2023/04/20 11:18:17;;;;;;;3.83;1.50;;;18.60;49.80;;;;;;5069617;28;20473;-76
2023/04/20 11:20:53;;;;;;;4.57;1.67;;;18.30;49.20;;;;;;5067654;28;20032;-76
2023/04/20 11:23:20;;;;;;;6.03;1.98;;;18.00;49.20;;;;;;5075663;28;20476;-76
2023/04/20 11:25:54;;;;;;;6.82;2.38;;;17.50;48.60;;;;;;5074838;28;20044;-76
2023/04/20 11:28:21;;;;;;;3.88;1.50;;;17.00;49.20;;;;;;5075805;28;20029;-76
2023/04/20 11:30:48;;;;;;;6.53;2.15;;;16.50;49.70;;;;;;5076130;28;20029;-76
2023/04/20 11:33:14;;;;;;;5.75;2.00;;;16.20;50.30;;;;;;5075697;28;20108;-75
2023/04/20 11:35:41;;;;;;;5.90;2.58;;;15.90;50.80;;;;;;5074371;28;20029;-76
2023/04/20 11:38:08;;;;;;;7.80;2.13;;;15.70;51.30;;;;;;5075546;28;20042;-76
2023/04/20 11:40:34;;;;;;;4.28;1.92;;;15.60;51.40;;;;;;5076185;28;20028;-76
2023/04/20 11:43:00;;;;;;;6.18;2.45;;;15.50;51.80;;;;;;5074803;28;20512;-77
2023/04/20 11:45:26;;;;;;;5.05;2.40;;;15.40;52.10;;;;;;5074126;28;20108;-76
2023/04/20 11:47:53;;;;;;;7.78;2.65;;;15.20;52.10;;;;;;5075267;28;20115;-76
2023/04/20 11:50:20;;;;;;;4.97;2.28;;;15.20;52.30;;;;;;5074712;28;20031;-76
2023/04/20 11:52:46;;;;;;;5.65;2.38;;;15.20;52.30;;;;;;5072694;28;20027;-77
2023/04/20 11:55:12;;;;;;;6.43;2.58;;;15.20;52.20;;;;;;5073627;28;20387;-75
2023/04/20 11:57:37;;;;;;;6.35;2.78;;;15.10;52.20;;;;;;5074660;28;20025;-76
2023/04/20 12:00:05;;;;;;;7.25;3.05;;;15.00;52.20;;;;;;5073765;28;20032;-76
2023/04/20 12:02:31;;;;;;;5.38;3.30;;;14.80;52.50;;;;;;5075218;28;20476;-77
2023/04/20 12:04:56;;;;;;;6.45;2.85;;;14.60;53.20;;;;;;5073786;28;20024;-76
2023/04/20 12:07:22;;;;;;;5.35;2.88;;;14.50;53.40;;;;;;5073862;28;20087;-76
2023/04/20 12:09:48;;;;;;;4.88;3.00;;;14.30;54.00;;;;;;5075380;28;20495;-75
2023/04/20 12:12:13;;;;;;;4.65;2.53;;;14.30;54.20;;;;;;5074719;28;20044;-76
2023/04/20 12:14:39;;;;;;;5.85;2.78;;;14.20;54.50;;;;;;5075493;28;20044;-74
2023/04/20 12:17:05;;;;;;;6.88;3.47;;;14.20;55.10;;;;;;5074877;28;20131;-76
2023/04/20 12:19:30;;;;;;;6.43;2.67;;;14.20;55.40;;;;;;5075187;28;20645;-76
2023/04/20 12:21:56;;;;;;;6.25;3.72;;;14.40;55.90;;;;;;5073698;28;20084;-76
2023/04/20 12:24:22;;;;;;;5.82;2.60;;;14.70;55.50;;;;;;5056875;28;20036;-76
2023/04/20 12:26:48;;;;;;;7.55;3.80;;;14.90;54.70;;;;;;5074599;28;20078;-76
2023/04/20 12:29:14;;;;;;;7.60;3.25;;;14.90;54.50;;;;;;5074635;28;20058;-76
2023/04/20 12:31:40;;;;;;;4.70;2.60;;;14.80;54.40;;;;;;5074902;28;20032;-76
2023/04/20 12:34:06;;;;;;;5.97;3.28;;;14.60;54.40;;;;;;5074628;28;20334;-77
2023/04/20 12:36:33;;;;;;;6.45;3.45;;;14.50;54.60;;;;;;5074262;28;20043;-76
2023/04/20 12:38:59;;;;;;;6.32;2.42;;;14.50;54.80;;;;;;5073717;28;20032;-76
2023/04/20 12:41:25;;;;;;;6.38;3.33;;;14.30;55.00;;;;;;5074104;28;20120;-76
2023/04/20 12:43:50;;;;;;;6.63;3.40;;;14.20;55.30;;;;;;5073502;28;20032;-76
2023/04/20 12:46:16;;;;;;;7.75;3.83;;;14.10;55.50;;;;;;5074453;28;20096;-77